createdAt,value
2019-03-25T00:01:15.846Z,97740.83
2019-03-25T00:03:43.150Z,97737.84
2019-03-25T00:06:10.386Z,97740.30
2019-03-25T00:08:37.555Z,97737.05
2019-03-25T00:11:04.788Z,97737.87
2019-03-25T00:13:32.182Z,97736.55
2019-03-25T00:15:59.392Z,97736.27
2019-03-25T00:18:26.581Z,97731.66
2019-03-25T00:20:53.939Z,97736.00
2019-03-25T00:23:21.117Z,97737.36
2019-03-25T00:25:48.321Z,97729.50
2019-03-25T00:28:15.667Z,97736.55
2019-03-25T00:30:42.841Z,97733.02
2019-03-25T00:33:10.010Z,97723.81
2019-03-25T00:35:37.206Z,97737.11
2019-03-25T00:38:04.506Z,97735.20
2019-03-25T00:40:31.678Z,97728.44
2019-03-25T00:42:58.881Z,97721.92
2019-03-25T00:45:26.071Z,97712.44
2019-03-25T00:47:53.426Z,97710.55
2019-03-25T00:50:20.701Z,97708.38
2019-03-25T00:52:47.894Z,97704.59
2019-03-25T00:55:15.136Z,97699.44
2019-03-25T00:57:42.381Z,97701.58
2019-03-25T01:00:09.791Z,97700.52
2019-03-25T01:02:37.147Z,97711.36
2019-03-25T01:05:06.485Z,97708.36
2019-03-25T01:07:33.762Z,97704.05
2019-03-25T01:10:01.050Z,97698.61
2019-03-25T01:12:28.247Z,97697.27
2019-03-25T01:14:55.527Z,97704.56
2019-03-25T01:17:22.795Z,97696.45
2019-03-25T01:19:50.094Z,97696.72
2019-03-25T01:22:17.169Z,97689.69
2019-03-25T01:24:44.477Z,97683.17
2019-03-25T01:27:11.653Z,97673.12
2019-03-25T01:29:38.878Z,97659.56
2019-03-25T01:32:06.181Z,97676.09
2019-03-25T01:34:33.501Z,97675.00
2019-03-25T01:37:00.786Z,97670.13
2019-03-25T01:39:27.976Z,97663.34
2019-03-25T01:41:55.308Z,97657.38
2019-03-25T01:44:22.625Z,97648.98
2019-03-25T01:46:49.907Z,97646.25
2019-03-25T01:49:17.131Z,97647.06
2019-03-25T01:51:44.385Z,97619.66
2019-03-25T01:54:11.779Z,97648.97
2019-03-25T01:56:39.170Z,97647.33
2019-03-25T01:59:06.435Z,97645.16
2019-03-25T02:01:33.625Z,97640.55
2019-03-25T02:04:00.937Z,97637.86
2019-03-25T02:06:28.224Z,97642.18
2019-03-25T02:08:55.404Z,97634.05
2019-03-25T02:11:22.843Z,97637.58
2019-03-25T02:13:50.113Z,97629.98
2019-03-25T02:16:17.313Z,97628.34
2019-03-25T02:18:44.502Z,97626.73
2019-03-25T02:21:12.297Z,97621.84
2019-03-25T02:23:39.479Z,97620.20
2019-03-25T02:26:06.685Z,97621.84
2019-03-25T02:28:34.158Z,97621.56
2019-03-25T02:31:01.394Z,97616.69
2019-03-25T02:33:28.690Z,97611.81
2019-03-25T02:35:55.960Z,97615.88
2019-03-25T02:38:23.309Z,97616.14
2019-03-25T02:40:50.497Z,97605.57
2019-03-25T02:43:17.807Z,97600.70
2019-03-25T02:45:44.997Z,97603.41
2019-03-25T02:48:12.178Z,97596.37
2019-03-25T02:50:41.274Z,97592.57
2019-03-25T02:53:08.583Z,97604.22
2019-03-25T02:55:41.998Z,97596.92
2019-03-25T02:58:05.304Z,97594.21
2019-03-25T03:00:36.396Z,97594.73
2019-03-25T03:03:04.260Z,97591.20
2019-03-25T03:05:31.568Z,97586.61
2019-03-25T03:07:58.879Z,97589.56
2019-03-25T03:10:26.050Z,97589.86
2019-03-25T03:12:53.252Z,97588.75
2019-03-25T03:15:20.574Z,97586.32
2019-03-25T03:17:47.860Z,97584.97
2019-03-25T03:20:15.277Z,97584.16
2019-03-25T03:22:42.612Z,97579.58
2019-03-25T03:25:09.910Z,97579.28
2019-03-25T03:27:37.239Z,97579.02
2019-03-25T03:30:04.680Z,97581.42
2019-03-25T03:32:31.910Z,97586.27
2019-03-25T03:34:59.225Z,97577.86
2019-03-25T03:37:26.667Z,97579.20
2019-03-25T03:39:53.998Z,97577.06
2019-03-25T03:42:21.294Z,97569.19
2019-03-25T03:44:48.703Z,97565.39
2019-03-25T03:47:16.059Z,97567.00
2019-03-25T03:49:43.259Z,97556.91
2019-03-25T03:52:10.728Z,97563.40
2019-03-25T03:57:18.323Z,97557.17
2019-03-25T03:59:45.623Z,97556.30
2019-03-25T04:02:12.896Z,97559.78
2019-03-25T04:04:40.237Z,97564.89
2019-03-25T04:07:07.419Z,97553.52
2019-03-25T04:09:34.825Z,97561.64
2019-03-25T04:12:02.234Z,97556.25
2019-03-25T04:14:29.760Z,97563.56
2019-03-25T04:16:57.049Z,97561.13
2019-03-25T04:19:24.292Z,97559.50
2019-03-25T04:21:51.613Z,97565.45
2019-03-25T04:24:18.875Z,97561.67
2019-03-25T04:26:46.298Z,97565.45
2019-03-25T04:29:13.615Z,97566.83
2019-03-25T04:31:40.997Z,97565.20
2019-03-25T04:34:08.294Z,97562.26
2019-03-25T04:36:35.500Z,97560.63
2019-03-25T04:39:04.061Z,97565.52
2019-03-25T04:41:31.458Z,97563.88
2019-03-25T04:43:58.878Z,97568.95
2019-03-25T04:46:26.328Z,97562.91
2019-03-25T04:48:53.485Z,97560.97
2019-03-25T04:51:20.990Z,97560.91
2019-03-25T04:53:48.171Z,97571.16
2019-03-25T04:56:15.404Z,97576.49
2019-03-25T04:58:43.876Z,97577.54
2019-03-25T05:01:11.129Z,97579.70
2019-03-25T05:03:38.435Z,97572.88
2019-03-25T05:06:05.713Z,97575.31
2019-03-25T05:08:32.920Z,97572.30
2019-03-25T05:11:00.235Z,97580.13
2019-03-25T05:13:27.634Z,97574.41
2019-03-25T05:15:54.754Z,97578.66
2019-03-25T05:18:22.175Z,97580.52
2019-03-25T05:20:49.433Z,97577.28
2019-03-25T05:23:16.687Z,97580.47
2019-03-25T05:25:44.043Z,97581.03
2019-03-25T05:28:11.351Z,97582.94
2019-03-25T05:30:38.840Z,97585.95
2019-03-25T05:33:06.050Z,97586.20
2019-03-25T05:35:33.382Z,97585.13
2019-03-25T05:38:00.731Z,97588.59
2019-03-25T05:40:28.606Z,97589.69
2019-03-25T05:42:55.973Z,97588.06
2019-03-25T05:45:23.292Z,97585.72
2019-03-25T05:47:50.547Z,97588.49
2019-03-25T05:50:17.961Z,97593.61
2019-03-25T05:52:45.662Z,97596.88
2019-03-25T05:55:12.858Z,97594.17
2019-03-25T05:57:40.523Z,97591.73
2019-03-25T06:00:09.162Z,97592.77
2019-03-25T06:02:36.802Z,97596.83
2019-03-25T06:05:04.728Z,97596.83
2019-03-25T06:07:32.049Z,97593.54
2019-03-25T06:09:59.430Z,97593.26
2019-03-25T06:12:26.920Z,97602.00
2019-03-25T06:14:54.209Z,97596.31
2019-03-25T06:17:21.531Z,97597.41
2019-03-25T06:19:48.920Z,97591.47
2019-03-25T06:22:16.208Z,97555.86
2019-03-25T06:24:43.427Z,97602.81
2019-03-25T06:27:14.417Z,97599.83
2019-03-25T06:29:41.812Z,97602.53
2019-03-25T06:32:09.178Z,97598.99
2019-03-25T06:34:37.095Z,97598.45
2019-03-25T06:37:04.433Z,97600.30
2019-03-25T06:39:31.626Z,97600.37
2019-03-25T06:41:59.260Z,97604.45
2019-03-25T06:44:26.568Z,97608.00
2019-03-25T06:46:53.860Z,97605.61
2019-03-25T06:49:21.349Z,97606.73
2019-03-25T06:51:48.905Z,97608.56
2019-03-25T06:54:16.172Z,97616.14
2019-03-25T06:56:43.555Z,97611.31
2019-03-25T06:59:10.987Z,97611.34
2019-03-25T07:01:38.379Z,97613.73
2019-03-25T07:04:05.640Z,97623.73
2019-03-25T07:06:33.126Z,97612.12
2019-03-25T07:09:00.375Z,97619.11
2019-03-25T07:11:27.578Z,97619.09
2019-03-25T07:13:54.756Z,97624.19
2019-03-25T07:16:22.076Z,97618.23
2019-03-25T07:18:49.360Z,97627.15
2019-03-25T07:21:16.651Z,97620.12
2019-03-25T07:23:44.045Z,97629.36
2019-03-25T07:26:11.440Z,97625.92
2019-03-25T07:28:38.896Z,97633.54
2019-03-25T07:31:06.287Z,97632.53
2019-03-25T07:33:33.780Z,97635.37
2019-03-25T07:36:01.028Z,97632.75
2019-03-25T07:38:28.344Z,97630.66
2019-03-25T07:40:55.537Z,97628.83
2019-03-25T07:43:22.902Z,97630.19
2019-03-25T07:45:50.236Z,97634.84
2019-03-25T07:48:17.608Z,97632.72
2019-03-25T07:50:44.852Z,97624.91
2019-03-25T07:53:12.174Z,97625.74
2019-03-25T07:55:40.452Z,97624.48
2019-03-25T07:58:07.957Z,97620.20
2019-03-25T08:00:35.247Z,97629.47
2019-03-25T08:03:02.577Z,97620.61
2019-03-25T08:05:29.796Z,97617.92
2019-03-25T08:07:56.992Z,97603.79
2019-03-25T08:10:34.343Z,97595.20
2019-03-25T08:13:01.945Z,97591.28
2019-03-25T08:15:29.281Z,97587.08
2019-03-25T08:17:56.701Z,97584.94
2019-03-25T08:20:23.949Z,97590.38
2019-03-25T08:22:51.295Z,97581.54
2019-03-25T08:25:18.595Z,97589.56
2019-03-25T08:27:45.973Z,97597.67
2019-03-25T08:30:13.392Z,97588.11
2019-03-25T08:32:40.676Z,97599.92
2019-03-25T08:35:08.073Z,97589.53
2019-03-25T08:37:35.491Z,97581.91
2019-03-25T08:40:03.112Z,97578.69
2019-03-25T08:42:30.490Z,97571.32
2019-03-25T08:44:57.667Z,97571.36
2019-03-25T08:47:24.993Z,97565.91
2019-03-25T08:49:52.312Z,97569.66
2019-03-25T08:52:19.629Z,97573.53
2019-03-25T08:54:47.029Z,97574.62
2019-03-25T08:57:14.336Z,97560.45
2019-03-25T08:59:42.761Z,97566.08
2019-03-25T09:02:10.069Z,97574.89
2019-03-25T09:04:37.285Z,97578.72
2019-03-25T09:07:04.600Z,97585.77
2019-03-25T09:09:31.916Z,97572.99
2019-03-25T09:11:59.207Z,97583.62
2019-03-25T09:14:26.546Z,97576.58
2019-03-25T09:16:53.937Z,97573.08
2019-03-25T09:19:21.129Z,97575.27
2019-03-25T09:21:48.447Z,97568.01
2019-03-25T09:24:15.746Z,97569.69
2019-03-25T09:26:42.968Z,97573.92
2019-03-25T09:29:10.246Z,97574.31
2019-03-25T09:31:37.436Z,97571.02
2019-03-25T09:34:04.744Z,97582.52
2019-03-25T09:36:32.198Z,97568.78
2019-03-25T09:38:59.336Z,97570.13
2019-03-25T09:41:26.641Z,97566.97
2019-03-25T09:43:53.918Z,97558.23
2019-03-25T09:46:21.224Z,97562.13
2019-03-25T09:48:48.623Z,97554.23
2019-03-25T09:51:15.967Z,97558.65
2019-03-25T09:53:43.310Z,97562.80
2019-03-25T09:56:10.596Z,97571.81
2019-03-25T09:58:37.937Z,97574.16
2019-03-25T10:01:05.294Z,97573.84
2019-03-25T10:03:32.661Z,97584.23
2019-03-25T10:05:59.961Z,97585.89
2019-03-25T10:08:27.315Z,97600.45
2019-03-25T10:10:54.530Z,97601.45
2019-03-25T10:13:21.876Z,97610.86
2019-03-25T10:15:49.227Z,97609.86
2019-03-25T10:18:16.542Z,97608.31
2019-03-25T10:20:43.926Z,97614.03
2019-03-25T10:23:11.503Z,97612.42
2019-03-25T10:25:38.916Z,97613.28
2019-03-25T10:28:07.313Z,97618.98
2019-03-25T10:30:34.666Z,97618.72
2019-03-25T10:33:02.008Z,97622.82
2019-03-25T10:35:29.356Z,97624.44
2019-03-25T10:37:57.744Z,97616.28
2019-03-25T10:40:25.153Z,97622.23
2019-03-25T10:42:52.465Z,97617.87
2019-03-25T10:45:20.856Z,97625.98
2019-03-25T10:47:48.052Z,97623.77
2019-03-25T10:50:15.553Z,97624.02
2019-03-25T10:52:42.958Z,97617.75
2019-03-25T10:55:10.282Z,97615.56
2019-03-25T10:57:37.629Z,97610.11
2019-03-25T11:00:06.418Z,97613.67
2019-03-25T11:02:33.715Z,97606.14
2019-03-25T11:05:01.049Z,97601.28
2019-03-25T11:07:29.520Z,97588.05
2019-03-25T11:09:56.891Z,97597.83
2019-03-25T11:12:24.077Z,97586.19
2019-03-25T11:14:51.437Z,97567.48
2019-03-25T11:17:18.644Z,97565.23
2019-03-25T11:19:45.957Z,97562.63
2019-03-25T11:22:13.352Z,97571.69
2019-03-25T11:24:40.653Z,97560.64
2019-03-25T11:27:08.042Z,97547.77
2019-03-25T11:29:35.261Z,97535.89
2019-03-25T11:32:02.569Z,97536.77
2019-03-25T11:34:29.902Z,97544.32
2019-03-25T11:36:57.205Z,97540.11
2019-03-25T11:39:24.517Z,97536.95
2019-03-25T11:41:51.910Z,97525.46
2019-03-25T11:44:19.249Z,97531.69
2019-03-25T11:46:46.566Z,97537.52
2019-03-25T11:49:13.866Z,97525.92
2019-03-25T11:51:41.240Z,97515.49
2019-03-25T11:54:08.534Z,97527.88
2019-03-25T11:56:35.850Z,97536.18
2019-03-25T11:59:05.502Z,97536.97
2019-03-25T12:01:32.926Z,97548.42
2019-03-25T12:04:00.371Z,97556.52
2019-03-25T12:06:27.744Z,97538.19
2019-03-25T12:08:55.120Z,97544.46
2019-03-25T12:11:23.729Z,97538.47
2019-03-25T12:13:51.180Z,97536.09
2019-03-25T12:16:18.513Z,97533.49
2019-03-25T12:18:45.902Z,97534.73
2019-03-25T12:21:13.233Z,97556.88
2019-03-25T12:23:40.663Z,97566.50
2019-03-25T12:26:08.052Z,97583.66
2019-03-25T12:28:35.417Z,97607.63
2019-03-25T12:31:02.628Z,97622.51
2019-03-25T12:33:29.947Z,97625.72
2019-03-25T12:35:57.139Z,97623.52
2019-03-25T12:38:24.461Z,97621.59
2019-03-25T12:40:51.651Z,97625.08
2019-03-25T12:43:19.011Z,97613.65
2019-03-25T12:45:46.304Z,97610.09
2019-03-25T12:48:13.720Z,97597.08
2019-03-25T12:50:41.049Z,97593.64
2019-03-25T12:53:08.244Z,97587.72
2019-03-25T12:55:35.500Z,97588.28
2019-03-25T12:58:02.815Z,97591.27
2019-03-25T13:00:37.987Z,97598.32
2019-03-25T13:03:05.331Z,97592.09
2019-03-25T13:05:33.706Z,97582.63
2019-03-25T13:08:01.120Z,97585.89
2019-03-25T13:10:28.637Z,97587.52
2019-03-25T13:12:55.960Z,97575.06
2019-03-25T13:15:23.281Z,97571.56
2019-03-25T13:17:50.596Z,97568.86
2019-03-25T13:20:17.916Z,97570.45
2019-03-25T13:22:45.221Z,97561.80
2019-03-25T13:25:12.445Z,97560.16
2019-03-25T13:27:39.654Z,97567.73
2019-03-25T13:30:08.512Z,97570.47
2019-03-25T13:32:35.825Z,97570.45
2019-03-25T13:35:03.363Z,97565.85
2019-03-25T13:37:30.637Z,97559.88
2019-03-25T13:39:57.841Z,97556.64
2019-03-25T13:42:25.041Z,97556.35
2019-03-25T13:44:54.876Z,97563.38
2019-03-25T13:47:21.493Z,97565.00
2019-03-25T13:49:48.803Z,97573.14
2019-03-25T13:52:16.160Z,97578.28
2019-03-25T13:54:43.496Z,97567.16
2019-03-25T13:57:10.789Z,97583.38
2019-03-25T13:59:38.129Z,97615.30
2019-03-25T14:02:05.491Z,97617.69
2019-03-25T14:04:32.685Z,97607.41
2019-03-25T14:06:59.982Z,97614.92
2019-03-25T14:09:27.178Z,97619.22
2019-03-25T14:11:54.482Z,97603.70
2019-03-25T14:14:24.493Z,97608.32
2019-03-25T14:16:51.693Z,97612.61
2019-03-25T14:19:18.947Z,97614.16
2019-03-25T14:21:46.288Z,97614.23
2019-03-25T14:24:13.622Z,97613.14
2019-03-25T14:26:40.905Z,97617.21
2019-03-25T14:29:08.400Z,97615.61
2019-03-25T14:31:35.735Z,97621.13
2019-03-25T14:34:03.260Z,97609.27
2019-03-25T14:36:30.856Z,97605.55
2019-03-25T14:38:58.525Z,97601.75
2019-03-25T14:41:25.927Z,97601.25
2019-03-25T14:43:54.430Z,97584.51
2019-03-25T14:46:21.734Z,97582.06
2019-03-25T14:48:49.115Z,97573.95
2019-03-25T14:51:16.527Z,97581.03
2019-03-25T14:53:45.534Z,97579.41
2019-03-25T14:56:12.913Z,97582.12
2019-03-25T14:58:40.272Z,97580.22
2019-03-25T15:01:08.654Z,97583.20
2019-03-25T15:03:36.115Z,97582.67
2019-03-25T15:06:03.341Z,97582.12
2019-03-25T15:08:30.715Z,97581.86
2019-03-25T15:10:58.087Z,97579.69
2019-03-25T15:13:25.472Z,97590.27
2019-03-25T15:15:52.819Z,97589.42
2019-03-25T15:18:20.180Z,97583.22
2019-03-25T15:20:47.502Z,97583.48
2019-03-25T15:23:14.612Z,97587.55
2019-03-25T15:25:41.925Z,97585.11
2019-03-25T15:28:09.416Z,97596.50
2019-03-25T15:30:36.843Z,97601.92
2019-03-25T15:33:04.169Z,97616.29
2019-03-25T15:35:31.507Z,97617.10
2019-03-25T15:37:58.908Z,97615.20
2019-03-25T15:40:26.289Z,97617.64
2019-03-25T15:42:53.624Z,97627.65
2019-03-25T15:45:20.810Z,97644.45
2019-03-25T15:47:48.483Z,97665.56
2019-03-25T15:50:15.819Z,97677.16
2019-03-25T15:52:43.124Z,97682.81
2019-03-25T15:55:11.709Z,97691.92
2019-03-25T15:57:39.873Z,97694.77
2019-03-25T16:00:11.550Z,97701.95
2019-03-25T16:02:38.923Z,97696.12
2019-03-25T16:05:06.354Z,97695.94
2019-03-25T16:07:33.744Z,97698.19
2019-03-25T16:10:00.965Z,97680.50
2019-03-25T16:12:28.364Z,97686.21
2019-03-25T16:14:55.661Z,97689.27
2019-03-25T16:17:22.964Z,97689.95
2019-03-25T16:19:50.304Z,97694.94
2019-03-25T16:22:17.608Z,97688.79
2019-03-25T16:24:44.916Z,97672.49
2019-03-25T16:27:12.281Z,97681.38
2019-03-25T16:29:39.665Z,97679.49
2019-03-25T16:32:06.968Z,97671.55
2019-03-25T16:34:34.279Z,97674.67
2019-03-25T16:37:01.497Z,97686.38
2019-03-25T16:39:28.857Z,97689.04
2019-03-25T16:41:56.146Z,97690.73
2019-03-25T16:44:23.470Z,97700.05
2019-03-25T16:49:15.237Z,97709.52
2019-03-25T16:51:42.627Z,97706.87
2019-03-25T16:54:10.064Z,97716.05
2019-03-25T16:56:37.480Z,97717.45
2019-03-25T16:59:04.895Z,97715.73
2019-03-25T17:01:32.319Z,97714.75
2019-03-25T17:03:59.517Z,97717.41
2019-03-25T17:06:26.765Z,97712.98
2019-03-25T17:08:54.086Z,97711.40
2019-03-25T17:11:21.456Z,97716.83
2019-03-25T17:13:48.851Z,97716.88
2019-03-25T17:16:16.156Z,97727.98
2019-03-25T17:18:43.537Z,97735.13
2019-03-25T17:21:10.898Z,97735.46
2019-03-25T17:23:38.112Z,97736.77
2019-03-25T17:26:06.420Z,97738.64
2019-03-25T17:28:33.745Z,97738.59
2019-03-25T17:31:03.115Z,97740.18
2019-03-25T17:33:30.483Z,97744.22
2019-03-25T17:35:57.710Z,97742.77
2019-03-25T17:38:25.148Z,97749.31
2019-03-25T17:40:52.480Z,97750.79
2019-03-25T17:43:19.696Z,97754.55
2019-03-25T17:45:47.024Z,97750.25
2019-03-25T17:48:14.381Z,97757.61
2019-03-25T17:50:41.773Z,97754.06
2019-03-25T17:53:09.116Z,97757.33
2019-03-25T17:55:36.536Z,97757.90
2019-03-25T17:58:03.763Z,97760.80
2019-03-25T18:01:04.649Z,97753.64
2019-03-25T18:03:31.878Z,97759.68
2019-03-25T18:05:59.148Z,97775.33
2019-03-25T18:08:26.438Z,97788.70
2019-03-25T18:10:53.713Z,97792.27
2019-03-25T18:13:22.607Z,97791.50
2019-03-25T18:15:49.979Z,97805.45
2019-03-25T18:18:17.322Z,97806.23
2019-03-25T18:20:44.633Z,97819.13
2019-03-25T18:23:11.946Z,97816.53
2019-03-25T18:25:39.234Z,97815.27
2019-03-25T18:28:06.595Z,97822.47
2019-03-25T18:30:34.280Z,97818.38
2019-03-25T18:33:01.947Z,97824.44
2019-03-25T18:35:29.317Z,97827.22
2019-03-25T18:37:56.693Z,97829.05
2019-03-25T18:40:23.969Z,97821.41
2019-03-25T18:42:51.267Z,97825.93
2019-03-25T18:45:18.597Z,97830.02
2019-03-25T18:47:45.887Z,97835.13
2019-03-25T18:50:13.393Z,97831.70
2019-03-25T18:52:40.814Z,97845.30
2019-03-25T18:55:08.174Z,97846.64
2019-03-25T18:57:35.516Z,97855.44
2019-03-25T19:00:03.449Z,97851.08
2019-03-25T19:02:30.860Z,97859.69
2019-03-25T19:04:58.196Z,97865.01
2019-03-25T19:07:25.783Z,97867.64
2019-03-25T19:09:53.493Z,97860.34
2019-03-25T19:12:20.912Z,97873.67
2019-03-25T19:14:49.365Z,97880.52
2019-03-25T19:17:16.929Z,97875.88
2019-03-25T19:19:44.422Z,97878.91
2019-03-25T19:22:12.949Z,97880.83
2019-03-25T19:24:40.421Z,97879.72
2019-03-25T19:27:07.762Z,97887.85
2019-03-25T19:29:35.159Z,97892.29
2019-03-25T19:32:06.911Z,97895.51
2019-03-25T19:34:32.713Z,97901.47
2019-03-25T19:37:00.043Z,97903.58
2019-03-25T19:39:27.441Z,97908.57
2019-03-25T19:41:54.808Z,97919.43
2019-03-25T19:44:22.103Z,97929.34
2019-03-25T19:46:49.476Z,97931.44
2019-03-25T19:49:16.836Z,97932.09
2019-03-25T19:51:44.262Z,97938.84
2019-03-25T19:54:11.776Z,97944.38
2019-03-25T19:56:39.183Z,97955.63
2019-03-25T19:59:06.567Z,97954.28
2019-03-25T20:01:33.936Z,97952.52
2019-03-25T20:04:01.383Z,97960.25
2019-03-25T20:06:30.076Z,97962.98
2019-03-25T20:08:57.677Z,97963.80
2019-03-25T20:11:24.936Z,97968.84
2019-03-25T20:13:52.421Z,97976.23
2019-03-25T20:16:19.699Z,97985.41
2019-03-25T20:18:47.087Z,97981.98
2019-03-25T20:21:14.472Z,97989.11
2019-03-25T20:23:41.677Z,97988.33
2019-03-25T20:26:08.995Z,97986.31
2019-03-25T20:28:36.227Z,97992.81
2019-03-25T20:31:03.579Z,97997.81
2019-03-25T20:33:30.769Z,97997.59
2019-03-25T20:35:58.212Z,98005.88
2019-03-25T20:38:25.653Z,98021.41
2019-03-25T20:40:53.206Z,98019.64
2019-03-25T20:43:20.686Z,98020.16
2019-03-25T20:45:48.213Z,98018.00
2019-03-25T20:48:15.556Z,98026.66
2019-03-25T20:50:43.009Z,98026.44
2019-03-25T20:53:10.439Z,98036.20
2019-03-25T20:55:37.710Z,98043.43
2019-03-25T20:58:05.074Z,98041.20
2019-03-25T21:00:45.935Z,98042.83
2019-03-25T21:03:13.355Z,98054.17
2019-03-25T21:05:40.824Z,98052.51
2019-03-25T21:08:08.167Z,98050.95
2019-03-25T21:10:35.789Z,98055.35
2019-03-25T21:13:03.376Z,98056.70
2019-03-25T21:15:30.856Z,98056.04
2019-03-25T21:17:58.219Z,98058.20
2019-03-25T21:20:25.648Z,98066.34
2019-03-25T21:22:53.054Z,98064.39
2019-03-25T21:25:20.346Z,98068.50
2019-03-25T21:27:47.742Z,98070.00
2019-03-25T21:30:15.217Z,98069.39
2019-03-25T21:32:42.475Z,98072.53
2019-03-25T21:35:12.192Z,98077.75
2019-03-25T21:37:39.588Z,98086.25
2019-03-25T21:40:07.115Z,98094.53
2019-03-25T21:42:37.256Z,98091.62
2019-03-25T21:45:05.202Z,98097.30
2019-03-25T21:47:32.550Z,98092.06
2019-03-25T21:49:59.963Z,98094.73
2019-03-25T21:52:27.215Z,98097.71
2019-03-25T21:54:54.595Z,98099.84
2019-03-25T21:57:22.091Z,98106.81
2019-03-25T21:59:49.470Z,98110.06
2019-03-25T22:02:16.821Z,98115.38
2019-03-25T22:04:44.172Z,98122.20
2019-03-25T22:07:11.540Z,98125.68
2019-03-25T22:09:39.017Z,98128.36
2019-03-25T22:12:06.367Z,98127.77
2019-03-25T22:14:33.837Z,98122.09
2019-03-25T22:17:01.313Z,98123.41
2019-03-25T22:19:28.741Z,98123.72
2019-03-25T22:21:56.100Z,98126.84
2019-03-25T22:24:23.475Z,98131.14
2019-03-25T22:26:50.821Z,98130.67
2019-03-25T22:29:18.173Z,98127.81
2019-03-25T22:31:46.587Z,98134.17
2019-03-25T22:34:13.933Z,98131.79
2019-03-25T22:36:41.188Z,98137.69
2019-03-25T22:39:08.530Z,98133.22
2019-03-25T22:41:35.981Z,98136.51
2019-03-25T22:44:04.461Z,98133.09
2019-03-25T22:46:31.735Z,98134.08
2019-03-25T22:48:59.051Z,98131.58
2019-03-25T22:51:26.374Z,98133.09
2019-03-25T22:53:53.668Z,98135.73
2019-03-25T22:56:21.051Z,98140.53
2019-03-25T22:58:48.388Z,98135.00
2019-03-25T23:01:15.697Z,98133.48
2019-03-25T23:03:42.996Z,98138.94
2019-03-25T23:06:10.195Z,98147.25
2019-03-25T23:08:37.398Z,98144.52
2019-03-25T23:11:04.772Z,98151.08
2019-03-25T23:13:32.055Z,98156.36
2019-03-25T23:15:59.307Z,98154.56
2019-03-25T23:18:26.542Z,98159.05
2019-03-25T23:20:53.879Z,98155.02
2019-03-25T23:23:21.075Z,98162.50
2019-03-25T23:25:48.390Z,98166.67
2019-03-25T23:28:15.720Z,98172.63
2019-03-25T23:30:42.916Z,98173.89
2019-03-25T23:33:10.353Z,98178.13
2019-03-25T23:35:37.775Z,98183.21
2019-03-25T23:38:05.069Z,98193.69
2019-03-25T23:40:32.426Z,98198.03
2019-03-25T23:42:59.677Z,98193.51
2019-03-25T23:45:26.859Z,98171.00
2019-03-25T23:47:54.152Z,98187.73
2019-03-25T23:50:21.511Z,98186.59
2019-03-25T23:52:48.698Z,98184.72
2019-03-25T23:55:15.886Z,98190.60
2019-03-25T23:57:43.291Z,98179.90
